HomeShort term forecast

Short term forecast

Graphical weather forecast for the next 48 hours for Montreal:

Short term forecast

This weather forecast is automatically refreshed every 3 hours.

Hourly Experimental Forecast for the next 48 hours ®

Overall summary: Mostly cloudy throughout the day.

 Date & Hour   Temp   Feel   Baro   Hum   Speed & Bearing   Wind Gust   Precip.%   Precip.   Visibility   Cloud cover   Conditions 
 05/03/2021 - 11:00  -10.4°C  -19.2°C  1009.2 hPa  50%  25.1 km/h   38.2 km/h  3%  --  16.1km  95%  Overcast 
 05/03/2021 - 12:00  -9.9°C  -18.5°C  1009.1 hPa  61%  24.3 km/h   37.0 km/h  6%  0.05 mm/h  16.1km  97%  Overcast 
 05/03/2021 - 13:00  -9.8°C  -18.2°C  1008.8 hPa  71%  23.6 km/h   35.7 km/h  8%  0.05 mm/h  15.9km  99%  Overcast 
 05/03/2021 - 14:00  -9.2°C  -17.4°C  1008.8 hPa  70%  23.2 km/h   35.5 km/h  8%  0.08 mm/h  10.4km  100%  Overcast 
 05/03/2021 - 15:00  -8.5°C  -16.4°C  1009.0 hPa  67%  22.5 km/h   35.6 km/h  6%  0.03 mm/h  14.7km  100%  Overcast 
 05/03/2021 - 16:00  -8.0°C  -15.7°C  1009.3 hPa  64%  21.6 km/h   34.7 km/h  6%  0.03 mm/h  16.1km  100%  Overcast 
 05/03/2021 - 17:00  -8.2°C  -15.4°C  1010.0 hPa  66%  19.0 km/h   33.2 km/h  4%  0.03 mm/h  16.1km  95%  Overcast 
 05/03/2021 - 18:00  -8.9°C  -15.8°C  1010.5 hPa  69%  17.0 km/h   34.5 km/h  3%  0.03 mm/h  16.1km  84%  Mostly Cloudy 
 05/03/2021 - 19:00  -9.5°C  -16.4°C  1011.0 hPa  70%  15.9 km/h   35.1 km/h  2%  0.01 mm/h  16.1km  66%  Mostly Cloudy 
 05/03/2021 - 20:00  -10.0°C  -16.9°C  1011.5 hPa  71%  15.6 km/h   34.2 km/h  2%  0.03 mm/h  16.1km  55%  Partly Cloudy 
 05/03/2021 - 21:00  -10.6°C  -17.4°C  1011.7 hPa  73%  14.9 km/h   32.1 km/h  1%  0.02 mm/h  16.1km  54%  Partly Cloudy 
 05/03/2021 - 22:00  -11.2°C  -18.1°C  1012.0 hPa  75%  14.7 km/h   31.2 km/h  1%  0.03 mm/h  16.1km  47%  Partly Cloudy 
 05/03/2021 - 23:00  -11.8°C  -18.8°C  1012.8 hPa  77%  14.5 km/h   31.0 km/h  0%  --  16.1km  35%  Partly Cloudy 
 06/03/2021 - 00:00  -12.8°C  -20.2°C  1012.9 hPa  79%  15.2 km/h   31.9 km/h  0%  --  16.1km  32%  Partly Cloudy 
 06/03/2021 - 01:00  -12.5°C  -19.8°C  1013.2 hPa  80%  15.0 km/h   29.9 km/h  1%  0.01 mm/h  16.1km  41%  Partly Cloudy 
 06/03/2021 - 02:00  -13.0°C  -20.4°C  1013.2 hPa  81%  14.7 km/h   31.0 km/h  1%  0.01 mm/h  16.1km  45%  Partly Cloudy 
 06/03/2021 - 03:00  -13.7°C  -21.0°C  1013.9 hPa  82%  14.3 km/h   31.6 km/h  0%  --  16.1km  41%  Partly Cloudy 
 06/03/2021 - 04:00  -14.1°C  -21.6°C  1014.1 hPa  82%  14.2 km/h   32.5 km/h  0%  --  16.1km  37%  Partly Cloudy 
 06/03/2021 - 05:00  -14.4°C  -21.9°C  1014.4 hPa  83%  14.4 km/h   33.5 km/h  0%  --  16.1km  38%  Partly Cloudy 
 06/03/2021 - 06:00  -14.5°C  -22.1°C  1014.9 hPa  82%  14.5 km/h   33.5 km/h  0%  --  16.1km  41%  Partly Cloudy 
 06/03/2021 - 07:00  -13.9°C  -21.4°C  1015.6 hPa  82%  14.9 km/h   34.8 km/h  0%  --  10.2km  44%  Partly Cloudy 
 06/03/2021 - 08:00  -12.9°C  -20.6°C  1016.1 hPa  82%  16.3 km/h   32.8 km/h  2%  0.01 mm/h  9.2km  64%  Mostly Cloudy 
 06/03/2021 - 09:00  -11.6°C  -19.4°C  1016.4 hPa  81%  17.8 km/h   29.9 km/h  4%  0.01 mm/h  10.9km  74%  Mostly Cloudy 
 06/03/2021 - 10:00  -10.5°C  -18.3°C  1016.6 hPa  79%  19.1 km/h   28.8 km/h  4%  0.01 mm/h  13.9km  76%  Mostly Cloudy 
 06/03/2021 - 11:00  -9.6°C  -17.3°C  1016.8 hPa  78%  20.0 km/h   28.9 km/h  6%  0.01 mm/h  15.5km  82%  Mostly Cloudy 
 06/03/2021 - 12:00  -8.8°C  -16.5°C  1016.8 hPa  78%  20.7 km/h   29.6 km/h  6%  0.01 mm/h  14.8km  86%  Mostly Cloudy 
 06/03/2021 - 13:00  -8.6°C  -16.3°C  1016.6 hPa  76%  21.4 km/h   29.9 km/h  7%  0.01 mm/h  13.9km  87%  Mostly Cloudy 
 06/03/2021 - 14:00  -7.7°C  -15.2°C  1016.6 hPa  74%  21.5 km/h   30.3 km/h  6%  0.01 mm/h  13.3km  91%  Overcast 
 06/03/2021 - 15:00  -6.8°C  -13.9°C  1016.8 hPa  72%  20.8 km/h   30.5 km/h  6%  0.01 mm/h  14.9km  95%  Overcast 
 06/03/2021 - 16:00  -6.2°C  -13.0°C  1017.2 hPa  72%  19.7 km/h   30.8 km/h  6%  0.01 mm/h  15.3km  97%  Overcast 
 06/03/2021 - 17:00  -6.3°C  -12.7°C  1017.8 hPa  74%  17.4 km/h   31.8 km/h  6%  0.01 mm/h  16.1km  95%  Overcast 
 06/03/2021 - 18:00  -7.1°C  -13.1°C  1018.7 hPa  77%  15.1 km/h   33.0 km/h  3%  0.01 mm/h  16.1km  85%  Mostly Cloudy 
 06/03/2021 - 19:00  -8.5°C  -14.4°C  1019.8 hPa  78%  13.0 km/h   25.4 km/h  2%  0.01 mm/h  15.3km  79%  Mostly Cloudy 
 06/03/2021 - 20:00  -9.4°C  -15.1°C  1020.5 hPa  78%  11.7 km/h   23.5 km/h  0%  --  16.1km  80%  Mostly Cloudy 
 06/03/2021 - 21:00  -10.2°C  -16.0°C  1021.1 hPa  77%  11.6 km/h   21.5 km/h  0%  --  16.1km  70%  Mostly Cloudy 
 06/03/2021 - 22:00  -10.7°C  -16.6°C  1021.6 hPa  76%  11.7 km/h   21.0 km/h  0%  --  16.1km  69%  Mostly Cloudy 
 06/03/2021 - 23:00  -11.2°C  -17.2°C  1022.0 hPa  76%  11.5 km/h   20.1 km/h  0%  --  16.1km  62%  Mostly Cloudy 
 07/03/2021 - 00:00  -11.8°C  -17.8°C  1022.6 hPa  77%  11.0 km/h   17.4 km/h  0%  --  16.1km  53%  Partly Cloudy 
 07/03/2021 - 01:00  -11.8°C  -17.4°C  1022.6 hPa  79%  10.3 km/h   15.9 km/h  0%  --  16.1km  39%  Partly Cloudy 
 07/03/2021 - 02:00  -12.3°C  -17.9°C  1023.2 hPa  80%  9.7 km/h   13.8 km/h  0%  --  16.1km  32%  Partly Cloudy 
 07/03/2021 - 03:00  -12.9°C  -18.3°C  1023.6 hPa  81%  9.2 km/h   13.2 km/h  0%  --  16.1km  28%  Clear 
 07/03/2021 - 04:00  -13.4°C  -18.7°C  1024.4 hPa  81%  8.7 km/h   11.9 km/h  0%  --  16.1km  23%  Clear 
 07/03/2021 - 05:00  -13.9°C  -19.0°C  1025.4 hPa  81%  8.0 km/h   10.9 km/h  0%  --  16.1km  16%  Clear 
 07/03/2021 - 06:00  -14.4°C  -19.4°C  1026.2 hPa  80%  7.4 km/h   9.8 km/h  0%  --  16.1km  8%  Clear 
 07/03/2021 - 07:00  -14.9°C  -19.8°C  1027.2 hPa  78%  7.4 km/h   10.4 km/h  0%  --  16.1km  1%  Clear 
 07/03/2021 - 08:00  -14.0°C  -18.8°C  1028.0 hPa  79%  7.2 km/h   10.3 km/h  0%  --  16.1km  1%  Clear 
 07/03/2021 - 09:00  -12.6°C  -17.0°C  1028.6 hPa  76%  7.0 km/h   9.0 km/h  0%  --  16.1km  1%  Clear 
 07/03/2021 - 10:00  -11.4°C  -15.7°C  1028.8 hPa  74%  7.1 km/h   8.4 km/h  0%  --  16.1km  1%  Clear 

 

Past weather and reports

Past weatherFind in this section the past weather conditions, weather archive, graphics, reports and statistics.

Current conditions

Current weather condition for MontrealAll you need to know about the current weather conditions for Montreal. Weather data is updated every 10 minutes.

Weather forecast

Current Montreal weatherSince 2004, celinium.com website has provided accurate weather forecast for Montreal's island.